sensor_id;sensor_type;location;lat;lon;timestamp;P1;durP1;ratioP1;P2;durP2;ratioP2
26838;SDS011;40088;51.214;6.786;2022-12-07T00:04:50;4.82;;;3.35;;
26838;SDS011;40088;51.214;6.786;2022-12-07T00:14:50;6.70;;;3.80;;
26838;SDS011;40088;51.214;6.786;2022-12-07T00:24:50;5.63;;;3.72;;
26838;SDS011;40088;51.214;6.786;2022-12-07T00:34:50;5.18;;;3.90;;
26838;SDS011;40088;51.214;6.786;2022-12-07T00:44:51;5.35;;;3.90;;
26838;SDS011;40088;51.214;6.786;2022-12-07T00:54:51;6.85;;;4.15;;
26838;SDS011;40088;51.214;6.786;2022-12-07T01:04:51;6.03;;;3.75;;
26838;SDS011;40088;51.214;6.786;2022-12-07T01:14:52;5.50;;;3.75;;
26838;SDS011;40088;51.214;6.786;2022-12-07T01:24:52;5.00;;;3.70;;
26838;SDS011;40088;51.214;6.786;2022-12-07T01:34:52;4.93;;;3.97;;
26838;SDS011;40088;51.214;6.786;2022-12-07T01:55:18;4.15;;;3.75;;
26838;SDS011;40088;51.214;6.786;2022-12-07T02:05:19;5.83;;;4.30;;
26838;SDS011;40088;51.214;6.786;2022-12-07T02:15:20;5.63;;;4.43;;
26838;SDS011;40088;51.214;6.786;2022-12-07T02:35:59;6.30;;;4.10;;
26838;SDS011;40088;51.214;6.786;2022-12-07T02:46:07;4.95;;;3.90;;
26838;SDS011;40088;51.214;6.786;2022-12-07T03:06:34;4.25;;;3.65;;
26838;SDS011;40088;51.214;6.786;2022-12-07T03:16:47;6.00;;;4.18;;
26838;SDS011;40088;51.214;6.786;2022-12-07T03:26:56;4.25;;;3.80;;
26838;SDS011;40088;51.214;6.786;2022-12-07T03:37:04;5.68;;;4.35;;
26838;SDS011;40088;51.214;6.786;2022-12-07T03:47:27;5.20;;;3.90;;
26838;SDS011;40088;51.214;6.786;2022-12-07T03:57:31;5.18;;;3.70;;
26838;SDS011;40088;51.214;6.786;2022-12-07T04:07:33;5.20;;;4.10;;
26838;SDS011;40088;51.214;6.786;2022-12-07T04:17:33;4.40;;;3.67;;
26838;SDS011;40088;51.214;6.786;2022-12-07T04:27:34;5.43;;;3.92;;
26838;SDS011;40088;51.214;6.786;2022-12-07T04:37:34;5.35;;;3.47;;
26838;SDS011;40088;51.214;6.786;2022-12-07T04:47:34;4.30;;;3.47;;
26838;SDS011;40088;51.214;6.786;2022-12-07T04:57:35;6.38;;;3.53;;
26838;SDS011;40088;51.214;6.786;2022-12-07T05:07:35;4.60;;;3.42;;
26838;SDS011;40088;51.214;6.786;2022-12-07T05:17:35;5.35;;;3.38;;
26838;SDS011;40088;51.214;6.786;2022-12-07T05:27:35;3.85;;;2.83;;
26838;SDS011;40088;51.214;6.786;2022-12-07T05:37:36;4.97;;;2.90;;
26838;SDS011;40088;51.214;6.786;2022-12-07T05:47:37;3.80;;;2.80;;
26838;SDS011;40088;51.214;6.786;2022-12-07T05:57:37;3.53;;;2.83;;
26838;SDS011;40088;51.214;6.786;2022-12-07T06:07:38;4.97;;;3.00;;
26838;SDS011;40088;51.214;6.786;2022-12-07T06:17:38;3.55;;;2.72;;
26838;SDS011;40088;51.214;6.786;2022-12-07T06:27:39;3.40;;;2.27;;
26838;SDS011;40088;51.214;6.786;2022-12-07T06:37:39;5.03;;;2.60;;
26838;SDS011;40088;51.214;6.786;2022-12-07T06:47:39;4.13;;;2.40;;
26838;SDS011;40088;51.214;6.786;2022-12-07T06:57:39;4.43;;;2.50;;
26838;SDS011;40088;51.214;6.786;2022-12-07T07:07:40;5.45;;;2.10;;
26838;SDS011;40088;51.214;6.786;2022-12-07T07:17:40;2.75;;;2.15;;
26838;SDS011;40088;51.214;6.786;2022-12-07T07:27:40;4.63;;;2.25;;
26838;SDS011;40088;51.214;6.786;2022-12-07T07:37:41;3.80;;;1.80;;
26838;SDS011;40088;51.214;6.786;2022-12-07T07:47:41;4.00;;;2.05;;
26838;SDS011;40088;51.214;6.786;2022-12-07T07:57:41;3.22;;;2.33;;
26838;SDS011;40088;51.214;6.786;2022-12-07T08:07:42;2.40;;;2.08;;
26838;SDS011;40088;51.214;6.786;2022-12-07T08:17:43;3.03;;;2.35;;
26838;SDS011;40088;51.214;6.786;2022-12-07T08:27:43;3.80;;;2.28;;
26838;SDS011;40088;51.214;6.786;2022-12-07T08:37:43;4.65;;;2.53;;
26838;SDS011;40088;51.214;6.786;2022-12-07T08:47:50;5.35;;;2.20;;
26838;SDS011;40088;51.214;6.786;2022-12-07T08:57:54;2.78;;;2.20;;
26838;SDS011;40088;51.214;6.786;2022-12-07T09:07:55;3.50;;;1.98;;
26838;SDS011;40088;51.214;6.786;2022-12-07T09:17:59;4.88;;;2.33;;
26838;SDS011;40088;51.214;6.786;2022-12-07T09:28:00;3.80;;;2.28;;
26838;SDS011;40088;51.214;6.786;2022-12-07T09:38:00;3.45;;;2.22;;
26838;SDS011;40088;51.214;6.786;2022-12-07T09:48:02;5.22;;;2.35;;
26838;SDS011;40088;51.214;6.786;2022-12-07T09:58:03;4.68;;;2.40;;
26838;SDS011;40088;51.214;6.786;2022-12-07T10:08:04;3.17;;;1.88;;
26838;SDS011;40088;51.214;6.786;2022-12-07T10:18:13;4.33;;;2.30;;
26838;SDS011;40088;51.214;6.786;2022-12-07T10:28:18;5.50;;;2.05;;
26838;SDS011;40088;51.214;6.786;2022-12-07T10:38:19;3.15;;;1.85;;
26838;SDS011;40088;51.214;6.786;2022-12-07T10:58:35;4.32;;;1.88;;
26838;SDS011;40088;51.214;6.786;2022-12-07T11:19:24;4.07;;;1.93;;
26838;SDS011;40088;51.214;6.786;2022-12-07T11:29:35;4.10;;;2.25;;
26838;SDS011;40088;51.214;6.786;2022-12-07T11:40:03;3.65;;;1.92;;
26838;SDS011;40088;51.214;6.786;2022-12-07T12:00:18;4.80;;;1.70;;
26838;SDS011;40088;51.214;6.786;2022-12-07T12:10:34;4.40;;;2.10;;
26838;SDS011;40088;51.214;6.786;2022-12-07T12:20:53;2.55;;;1.75;;
26838;SDS011;40088;51.214;6.786;2022-12-07T12:31:31;3.70;;;1.65;;
26838;SDS011;40088;51.214;6.786;2022-12-07T12:51:55;2.97;;;1.88;;
26838;SDS011;40088;51.214;6.786;2022-12-07T13:02:09;3.33;;;1.80;;
26838;SDS011;40088;51.214;6.786;2022-12-07T13:12:14;5.00;;;1.73;;
26838;SDS011;40088;51.214;6.786;2022-12-07T13:32:31;4.03;;;1.88;;
26838;SDS011;40088;51.214;6.786;2022-12-07T13:42:32;4.15;;;2.05;;
26838;SDS011;40088;51.214;6.786;2022-12-07T13:52:34;3.92;;;2.10;;
26838;SDS011;40088;51.214;6.786;2022-12-07T14:13:30;4.43;;;2.20;;
26838;SDS011;40088;51.214;6.786;2022-12-07T14:23:31;3.75;;;1.70;;
26838;SDS011;40088;51.214;6.786;2022-12-07T14:33:31;3.53;;;1.85;;
26838;SDS011;40088;51.214;6.786;2022-12-07T14:43:31;3.50;;;1.88;;
26838;SDS011;40088;51.214;6.786;2022-12-07T14:53:34;3.45;;;1.73;;
26838;SDS011;40088;51.214;6.786;2022-12-07T15:03:37;4.75;;;1.67;;
26838;SDS011;40088;51.214;6.786;2022-12-07T15:13:38;3.22;;;1.88;;
26838;SDS011;40088;51.214;6.786;2022-12-07T15:23:57;3.28;;;1.80;;
26838;SDS011;40088;51.214;6.786;2022-12-07T15:33:57;2.60;;;1.70;;
26838;SDS011;40088;51.214;6.786;2022-12-07T15:43:58;3.38;;;1.80;;
26838;SDS011;40088;51.214;6.786;2022-12-07T15:54:23;2.72;;;1.80;;
26838;SDS011;40088;51.214;6.786;2022-12-07T16:04:26;4.40;;;2.15;;
26838;SDS011;40088;51.214;6.786;2022-12-07T16:14:28;8.25;;;2.70;;
26838;SDS011;40088;51.214;6.786;2022-12-07T16:24:28;6.68;;;2.55;;
26838;SDS011;40088;51.214;6.786;2022-12-07T16:34:28;5.78;;;2.47;;
26838;SDS011;40088;51.214;6.786;2022-12-07T16:44:30;4.63;;;2.33;;
26838;SDS011;40088;51.214;6.786;2022-12-07T16:54:31;5.07;;;2.45;;
26838;SDS011;40088;51.214;6.786;2022-12-07T17:04:33;4.82;;;2.47;;
26838;SDS011;40088;51.214;6.786;2022-12-07T17:14:33;3.60;;;2.03;;
26838;SDS011;40088;51.214;6.786;2022-12-07T17:24:52;3.25;;;2.10;;
26838;SDS011;40088;51.214;6.786;2022-12-07T17:34:52;4.95;;;2.78;;
26838;SDS011;40088;51.214;6.786;2022-12-07T17:44:52;5.30;;;2.70;;
26838;SDS011;40088;51.214;6.786;2022-12-07T17:54:53;4.55;;;2.33;;
26838;SDS011;40088;51.214;6.786;2022-12-07T18:04:53;6.55;;;2.78;;
26838;SDS011;40088;51.214;6.786;2022-12-07T18:14:53;3.47;;;2.55;;
26838;SDS011;40088;51.214;6.786;2022-12-07T18:24:54;4.90;;;2.60;;
26838;SDS011;40088;51.214;6.786;2022-12-07T18:34:54;5.05;;;2.70;;
26838;SDS011;40088;51.214;6.786;2022-12-07T18:44:55;4.30;;;2.90;;
26838;SDS011;40088;51.214;6.786;2022-12-07T18:54:55;5.68;;;3.00;;
26838;SDS011;40088;51.214;6.786;2022-12-07T19:04:55;6.45;;;3.20;;
26838;SDS011;40088;51.214;6.786;2022-12-07T19:14:56;4.70;;;2.95;;
26838;SDS011;40088;51.214;6.786;2022-12-07T19:24:56;7.18;;;3.22;;
26838;SDS011;40088;51.214;6.786;2022-12-07T19:34:56;4.93;;;2.88;;
26838;SDS011;40088;51.214;6.786;2022-12-07T19:44:57;3.72;;;2.90;;
26838;SDS011;40088;51.214;6.786;2022-12-07T19:54:57;5.43;;;3.88;;
26838;SDS011;40088;51.214;6.786;2022-12-07T20:04:57;5.97;;;3.10;;
26838;SDS011;40088;51.214;6.786;2022-12-07T20:14:58;5.22;;;3.55;;
26838;SDS011;40088;51.214;6.786;2022-12-07T20:24:58;6.25;;;3.65;;
26838;SDS011;40088;51.214;6.786;2022-12-07T20:34:59;4.78;;;3.80;;
26838;SDS011;40088;51.214;6.786;2022-12-07T20:44:59;6.47;;;3.97;;
26838;SDS011;40088;51.214;6.786;2022-12-07T20:54:59;5.53;;;4.03;;
26838;SDS011;40088;51.214;6.786;2022-12-07T21:04:59;6.45;;;4.38;;
26838;SDS011;40088;51.214;6.786;2022-12-07T21:15:00;5.85;;;4.18;;
26838;SDS011;40088;51.214;6.786;2022-12-07T21:25:00;7.50;;;4.78;;
26838;SDS011;40088;51.214;6.786;2022-12-07T21:35:00;4.57;;;3.83;;
26838;SDS011;40088;51.214;6.786;2022-12-07T21:45:00;7.05;;;4.25;;
26838;SDS011;40088;51.214;6.786;2022-12-07T21:55:01;5.38;;;4.43;;
26838;SDS011;40088;51.214;6.786;2022-12-07T22:05:01;6.15;;;4.80;;
26838;SDS011;40088;51.214;6.786;2022-12-07T22:15:01;5.43;;;4.63;;
26838;SDS011;40088;51.214;6.786;2022-12-07T22:25:05;5.20;;;4.55;;
26838;SDS011;40088;51.214;6.786;2022-12-07T22:35:05;6.38;;;4.60;;
26838;SDS011;40088;51.214;6.786;2022-12-07T22:45:06;6.18;;;4.18;;
26838;SDS011;40088;51.214;6.786;2022-12-07T22:55:07;5.30;;;3.92;;
26838;SDS011;40088;51.214;6.786;2022-12-07T23:05:07;5.03;;;4.38;;
26838;SDS011;40088;51.214;6.786;2022-12-07T23:15:08;5.23;;;4.27;;
26838;SDS011;40088;51.214;6.786;2022-12-07T23:25:09;5.53;;;4.78;;
26838;SDS011;40088;51.214;6.786;2022-12-07T23:35:09;5.80;;;4.45;;
26838;SDS011;40088;51.214;6.786;2022-12-07T23:45:09;5.93;;;4.45;;
26838;SDS011;40088;51.214;6.786;2022-12-07T23:55:10;5.40;;;4.13;;
